Chickasha, OK (73018)

3:49 AM CDT on May 30, 2015 (GMT -0500)
Pecan Grove Rv | | Change Station
CLOSE
Current Station
Personal Weather Station
Location: Chickasha, OK
Elevation: 1178 ft
Nearby Weather Stations
Active Advisory: Flood Warning Active Notice: Local Storm Report

Elev 1178 ft 35.02 °N, 97.94 °W | Updated 17 seconds ago

Clear
Clear
66.0 °F
Feels Like 66.0 °F
N
0.0
Wind Variable Wind from West
Gusts 0.0 mph

Today
High -- | Low -- °F
--% Chance of Precip.
Yesterday
High -- | Low -- °F
Precip. -- in
6:19 AM 8:39 PM
Waxing Gibbous, 89% visible
Pressure 30.01 in
Visibility 10.0 miles
Clouds Clear
Dew Point 66 °F
Humidity 98%
Rainfall 0.00 in
Snow Depth Not available.
UV 0.0 out of 12
Pollen 3.40 out of 12
Air Quality Not available.
Flu Activity Sporadic
METAR KCHK 300835Z AUTO 00000KT 10SM CLR 17/17 A3001 RMK AO2

More Conditions Fewer Conditions

Pressure 30.01 in
Visibility 10.0 miles
Clouds Clear
Dew Point 66 °F
Humidity 98%
Rainfall 0.00 in
Snow Depth Not available.
UV 0.0 out of 12
Pollen 3.40 out of 12
Air Quality Not available.
Flu Activity Sporadic
METAR KCHK 300835Z AUTO 00000KT 10SM CLR 17/17 A3001 RMK AO2

More Conditions Fewer Conditions

10-Day Weather Forecast

Almanac

Astronomy

May. 30, 2015 Rise Set
Actual Time
Civil Twilight
Nautical Twilight
Astronomical Twilight
Moon
Length of Visible Light
Length of Day
Tomorrow will be .
, % of the Moon is Illuminated

Today's Extremes

State Highs State Lows

Community

WunderPhotos

Upload Photos

1,825,472 photos uploaded!

WunderBlogs® & News

Nearby

Air Quality

  Air Quality AQ Index Pollutant
Not available.

Snow Depth

Station Depth Elevation

Earthquake Activity

City Distance Mag. Time & Date
Minimum magnitude displayed is 2.5.

Coastal Water Temperatures

Place Temperature

Stations

Nearby Weather Stations

Station Location Temp. Windchill Dew Point Humidity Wind Precip. Elev Updated Type
                   
Flood Warning
Statement as of 3:15 AM CDT on May 30, 2015

... Flood Warning extended until this afternoon...

the Flood Warning continues for
the Washita river near Chickasha

* until this afternoon... or until the warning is cancelled.

* At 7:00 PM Friday the stage was 20.0 feet.

* Minor flooding is occurring.

* Flood stage is 19.0 feet.

* Forecast... the Washita river has crested and will continue to fall.
The Washita river will fall below flood stage mid Saturday morning.


Lat... Lon 3505 9809 3513 9809 3512 9790 3500 9781
      3497 9789 3505 9796




315 am CDT Sat may 30 2015

The Flood Warning continues for
the Washita river at Anadarko

* until further notice... or until the warning is cancelled.

* At 2:30 am Saturday the stage was 21.5 feet.

* Moderate flooding is occurring.

* Flood stage is 19.0 feet.

* Forecast... the Washita river has crested and will continue to fall
to a stage of 20.9 feet mid Sunday morning.



Lat... Lon 3505 9844 3512 9842 3513 9825 3513 9809
      3505 9809 3505 9826